createdAt,value
2023-04-17T00:01:05.601Z,3.20
2023-04-17T00:03:33.050Z,3.03
2023-04-17T00:06:00.358Z,3.33
2023-04-17T00:08:27.669Z,3.20
2023-04-17T00:11:04.650Z,3.00
2023-04-17T00:13:36.056Z,3.33
2023-04-17T00:16:03.435Z,3.10
2023-04-17T00:18:30.905Z,3.30
2023-04-17T00:20:58.138Z,3.70
2023-04-17T00:23:26.187Z,3.53
2023-04-17T00:25:53.427Z,3.47
2023-04-17T00:28:21.040Z,3.35
2023-04-17T00:30:48.365Z,3.47
2023-04-17T00:33:15.675Z,3.22
2023-04-17T00:35:42.980Z,3.33
2023-04-17T00:38:10.215Z,3.25
2023-04-17T00:40:37.465Z,3.17
2023-04-17T00:43:06.732Z,3.50
2023-04-17T00:45:35.271Z,3.22
2023-04-17T00:48:05.119Z,2.90
2023-04-17T00:50:33.186Z,3.22
2023-04-17T00:53:01.509Z,3.10
2023-04-17T00:55:30.748Z,3.10
2023-04-17T00:57:58.740Z,3.15
2023-04-17T01:00:26.039Z,3.10
2023-04-17T01:02:54.664Z,3.30
2023-04-17T01:05:22.159Z,3.38
2023-04-17T01:07:49.568Z,3.10
2023-04-17T01:10:16.995Z,3.00
2023-04-17T01:12:46.796Z,3.00
2023-04-17T01:15:14.080Z,2.97
2023-04-17T01:17:41.343Z,2.88
2023-04-17T01:20:10.757Z,2.92
2023-04-17T01:22:38.622Z,3.00
2023-04-17T01:25:06.531Z,2.85
2023-04-17T01:27:36.467Z,3.03
2023-04-17T01:30:04.364Z,3.25
2023-04-17T01:32:36.832Z,3.10
2023-04-17T01:35:04.460Z,2.85
2023-04-17T01:37:31.920Z,3.25
2023-04-17T01:39:59.776Z,3.35
2023-04-17T01:42:27.046Z,2.92
2023-04-17T01:44:54.798Z,2.80
2023-04-17T01:47:22.107Z,2.80
2023-04-17T01:49:49.306Z,3.00
2023-04-17T01:52:16.802Z,3.05
2023-04-17T01:54:44.023Z,3.20
2023-04-17T01:57:11.213Z,3.00
2023-04-17T01:59:38.460Z,2.47
2023-04-17T02:02:06.122Z,2.67
2023-04-17T02:04:33.527Z,2.50
2023-04-17T02:07:00.817Z,2.28
2023-04-17T02:09:28.075Z,2.38
2023-04-17T02:11:56.829Z,1.90
2023-04-17T02:14:24.983Z,1.30
2023-04-17T02:16:53.708Z,1.45
2023-04-17T02:19:21.395Z,1.30
2023-04-17T02:21:48.718Z,1.10
2023-04-17T02:24:16.091Z,1.10
2023-04-17T02:26:43.346Z,1.20
2023-04-17T02:29:13.283Z,1.00
2023-04-17T02:31:44.006Z,1.20
2023-04-17T02:34:11.982Z,1.08
2023-04-17T02:36:41.347Z,0.85
2023-04-17T02:39:08.879Z,1.17
2023-04-17T02:41:36.167Z,1.00
2023-04-17T02:44:04.746Z,0.90
2023-04-17T02:46:33.205Z,1.05
2023-04-17T02:49:00.498Z,1.05
2023-04-17T02:51:27.842Z,1.08
2023-04-17T02:53:55.247Z,1.10
2023-04-17T02:56:22.692Z,1.02
2023-04-17T02:58:49.999Z,1.00
2023-04-17T03:01:17.548Z,1.00
2023-04-17T03:03:46.615Z,1.10
2023-04-17T03:06:15.775Z,0.95
2023-04-17T03:08:43.401Z,1.00
2023-04-17T03:11:11.036Z,1.02
2023-04-17T03:13:38.354Z,0.98
2023-04-17T03:16:06.151Z,1.40
2023-04-17T03:18:39.224Z,1.27
2023-04-17T03:21:07.355Z,1.20
2023-04-17T03:23:34.833Z,1.35
2023-04-17T03:26:02.163Z,1.60
2023-04-17T03:28:32.457Z,1.20
2023-04-17T03:30:59.928Z,1.48
2023-04-17T03:33:27.274Z,1.67
2023-04-17T03:35:57.410Z,1.70
2023-04-17T03:38:24.765Z,1.30
2023-04-17T03:40:53.793Z,1.50
2023-04-17T03:43:23.680Z,1.48
2023-04-17T03:45:51.719Z,1.58
2023-04-17T03:48:19.333Z,1.92
2023-04-17T03:50:48.778Z,2.05
2023-04-17T03:53:16.423Z,2.10
2023-04-17T03:55:44.133Z,2.58
2023-04-17T03:58:20.977Z,2.10
2023-04-17T04:00:50.552Z,2.25
2023-04-17T04:03:18.375Z,2.30
2023-04-17T04:05:48.779Z,2.33
2023-04-17T04:08:16.703Z,2.00
2023-04-17T04:10:47.954Z,2.00
2023-04-17T04:13:20.826Z,2.25
2023-04-17T04:15:53.868Z,2.22
2023-04-17T04:18:24.391Z,1.60
2023-04-17T04:20:51.865Z,1.65
2023-04-17T04:23:27.845Z,2.10
2023-04-17T04:25:56.885Z,1.40
2023-04-17T04:28:31.925Z,1.58
2023-04-17T04:31:02.412Z,1.75
2023-04-17T04:33:37.653Z,1.50
2023-04-17T04:36:05.093Z,1.80
2023-04-17T04:38:34.389Z,1.80
2023-04-17T04:41:14.827Z,1.50
2023-04-17T04:43:45.964Z,1.42
2023-04-17T04:46:13.388Z,1.67
2023-04-17T04:48:45.304Z,1.30
2023-04-17T04:51:13.277Z,1.60
2023-04-17T04:53:41.267Z,1.83
2023-04-17T04:56:08.738Z,1.95
2023-04-17T04:58:38.503Z,1.90
2023-04-17T05:01:06.737Z,2.40
2023-04-17T05:03:39.192Z,2.00
2023-04-17T05:06:07.876Z,1.60
2023-04-17T05:08:41.621Z,1.73
2023-04-17T05:11:11.959Z,2.28
2023-04-17T05:13:39.358Z,1.95
2023-04-17T05:16:11.657Z,1.60
2023-04-17T05:18:39.955Z,1.63
2023-04-17T05:21:10.342Z,1.35
2023-04-17T05:23:39.840Z,1.48
2023-04-17T05:26:07.326Z,1.80
2023-04-17T05:28:34.935Z,1.60
2023-04-17T05:31:02.744Z,1.98
2023-04-17T05:33:37.650Z,1.55
2023-04-17T05:36:07.712Z,1.88
2023-04-17T05:38:38.598Z,1.77
2023-04-17T05:41:08.510Z,1.63
2023-04-17T05:43:37.642Z,1.60
2023-04-17T05:46:05.126Z,1.75
2023-04-17T05:48:32.734Z,1.45
2023-04-17T05:51:00.058Z,1.75
2023-04-17T05:53:30.306Z,1.50
2023-04-17T05:55:58.676Z,1.88
2023-04-17T05:58:25.916Z,2.20
2023-04-17T06:00:56.827Z,2.40
2023-04-17T06:03:27.171Z,2.33
2023-04-17T06:06:03.739Z,2.47
2023-04-17T06:08:31.566Z,2.38
2023-04-17T06:10:58.807Z,2.40
2023-04-17T06:13:26.440Z,2.47
2023-04-17T06:15:54.376Z,2.35
2023-04-17T06:18:21.637Z,1.98
2023-04-17T06:20:48.954Z,2.40
2023-04-17T06:23:16.522Z,2.10
2023-04-17T06:25:43.860Z,2.33
2023-04-17T06:28:11.125Z,2.05
2023-04-17T06:30:38.628Z,2.38
2023-04-17T06:33:07.972Z,2.20
2023-04-17T06:35:37.593Z,2.65
2023-04-17T06:38:16.970Z,2.10
2023-04-17T06:40:44.750Z,2.05
2023-04-17T06:43:12.417Z,2.10
2023-04-17T06:45:42.583Z,2.00
2023-04-17T06:48:10.121Z,2.05
2023-04-17T06:50:39.540Z,2.60
2023-04-17T06:53:07.026Z,2.35
2023-04-17T06:55:34.282Z,2.15
2023-04-17T06:58:01.650Z,2.00
2023-04-17T07:00:29.048Z,2.38
2023-04-17T07:02:56.525Z,2.10
2023-04-17T07:05:24.000Z,2.25
2023-04-17T07:07:51.281Z,2.83
2023-04-17T07:10:19.554Z,2.58
2023-04-17T07:12:46.807Z,2.40
2023-04-17T07:15:14.152Z,2.85
2023-04-17T07:17:41.857Z,2.80
2023-04-17T07:20:09.745Z,2.40
2023-04-17T07:22:37.031Z,2.60
2023-04-17T07:25:05.473Z,2.75
2023-04-17T07:27:32.882Z,2.70
2023-04-17T07:30:00.564Z,2.30
2023-04-17T07:32:28.429Z,2.35
2023-04-17T07:34:55.697Z,2.15
2023-04-17T07:37:23.024Z,2.13
2023-04-17T07:39:50.582Z,2.72
2023-04-17T07:42:17.947Z,2.53
2023-04-17T07:44:47.127Z,2.80
2023-04-17T07:47:14.521Z,2.50
2023-04-17T07:49:41.868Z,2.15
2023-04-17T07:52:09.252Z,2.30
2023-04-17T07:54:36.487Z,2.60
2023-04-17T07:57:03.725Z,2.40
2023-04-17T07:59:30.948Z,1.88
2023-04-17T08:01:58.317Z,1.88
2023-04-17T08:04:26.337Z,1.67
2023-04-17T08:06:53.763Z,1.90
2023-04-17T08:09:22.127Z,2.00
2023-04-17T08:11:56.969Z,1.90
2023-04-17T08:14:25.352Z,1.98
2023-04-17T08:16:52.912Z,1.90
2023-04-17T08:19:20.175Z,2.00
2023-04-17T08:21:48.206Z,2.20
2023-04-17T08:24:18.629Z,2.10
2023-04-17T08:26:47.353Z,1.77
2023-04-17T08:29:14.839Z,1.83
2023-04-17T08:31:42.363Z,1.60
2023-04-17T08:36:40.150Z,1.63
2023-04-17T08:39:09.743Z,1.58
2023-04-17T08:41:49.132Z,1.90
2023-04-17T08:44:21.297Z,1.25
2023-04-17T08:46:49.931Z,1.50
2023-04-17T08:49:17.165Z,1.17
2023-04-17T08:51:44.579Z,1.10
2023-04-17T08:54:11.897Z,1.17
2023-04-17T08:56:39.165Z,1.00
2023-04-17T08:59:06.549Z,1.10
2023-04-17T09:01:34.867Z,1.25
2023-04-17T09:04:02.536Z,1.20
2023-04-17T09:06:49.462Z,1.13
2023-04-17T09:11:44.334Z,1.17
2023-04-17T09:14:30.307Z,1.13
2023-04-17T09:16:57.988Z,1.10
2023-04-17T09:19:25.174Z,1.10
2023-04-17T09:21:54.623Z,1.10
2023-04-17T09:24:35.150Z,1.40
2023-04-17T09:27:26.987Z,1.25
2023-04-17T09:30:02.542Z,1.02
2023-04-17T09:32:31.711Z,0.95
2023-04-17T09:35:01.722Z,1.25
2023-04-17T09:37:49.970Z,1.20
2023-04-17T09:40:19.159Z,1.20
2023-04-17T09:42:57.277Z,1.20
2023-04-17T09:45:25.701Z,1.52
2023-04-17T09:47:55.829Z,1.10
2023-04-17T09:50:24.890Z,1.30
2023-04-17T09:52:53.037Z,1.23
2023-04-17T09:55:22.021Z,1.25
2023-04-17T09:57:57.198Z,1.00
2023-04-17T10:00:29.594Z,1.10
2023-04-17T10:02:58.897Z,1.20
2023-04-17T10:05:32.143Z,2.05
2023-04-17T10:07:59.730Z,1.70
2023-04-17T10:10:30.335Z,1.73
2023-04-17T10:13:06.823Z,1.50
2023-04-17T10:15:34.868Z,1.50
2023-04-17T10:18:24.988Z,1.40
2023-04-17T10:20:53.777Z,1.50
2023-04-17T10:23:34.968Z,1.63
2023-04-17T10:26:29.981Z,1.30
2023-04-17T10:28:57.769Z,1.30
2023-04-17T10:32:03.799Z,1.27
2023-04-17T10:34:38.364Z,0.77
2023-04-17T10:37:05.654Z,0.98
2023-04-17T10:39:54.857Z,1.60
2023-04-17T10:42:23.999Z,1.65
2023-04-17T10:44:55.729Z,1.38
2023-04-17T10:47:29.780Z,1.45
2023-04-17T10:49:59.157Z,1.40
2023-04-17T10:52:42.080Z,1.20
2023-04-17T10:55:10.763Z,1.23
2023-04-17T10:58:01.991Z,1.15
2023-04-17T11:00:32.752Z,1.52
2023-04-17T11:03:02.233Z,1.40
2023-04-17T11:05:31.380Z,1.60
2023-04-17T11:07:59.500Z,1.25
2023-04-17T11:10:27.428Z,1.70
2023-04-17T11:12:56.603Z,1.85
2023-04-17T11:15:31.761Z,1.70
2023-04-17T11:18:00.238Z,1.50
2023-04-17T11:20:32.699Z,1.63
2023-04-17T11:23:04.312Z,1.58
2023-04-17T11:25:33.876Z,1.70
2023-04-17T11:28:06.342Z,1.70
2023-04-17T11:30:42.107Z,1.58
2023-04-17T11:33:09.463Z,1.70
2023-04-17T11:35:38.957Z,1.80
2023-04-17T11:38:20.797Z,1.77
2023-04-17T11:40:53.887Z,0.50
2023-04-17T11:43:23.312Z,0.85
2023-04-17T11:45:53.190Z,2.20
2023-04-17T11:48:25.134Z,0.80
2023-04-17T11:51:03.331Z,0.90
2023-04-17T11:53:32.103Z,1.20
2023-04-17T11:56:15.881Z,0.70
2023-04-17T11:58:51.542Z,3.45
2023-04-17T12:01:20.436Z,1.30
2023-04-17T12:03:48.087Z,1.35
2023-04-17T12:06:16.023Z,1.60
2023-04-17T12:08:54.909Z,1.63
2023-04-17T12:11:33.146Z,1.80
2023-04-17T12:14:01.339Z,2.47
2023-04-17T12:16:29.634Z,2.13
2023-04-17T12:18:57.629Z,2.45
2023-04-17T12:21:24.933Z,3.17
2023-04-17T12:23:52.167Z,3.05
2023-04-17T12:26:19.559Z,2.65
2023-04-17T12:28:46.860Z,2.80
2023-04-17T12:31:14.166Z,3.25
2023-04-17T12:33:41.446Z,3.30
2023-04-17T12:36:09.685Z,4.10
2023-04-17T12:38:37.098Z,3.90
2023-04-17T12:41:04.363Z,4.10
2023-04-17T12:43:33.026Z,3.88
2023-04-17T12:46:00.418Z,4.50
2023-04-17T12:48:27.802Z,3.70
2023-04-17T12:50:55.051Z,3.20
2023-04-17T12:53:22.353Z,3.50
2023-04-17T12:55:49.635Z,2.88
2023-04-17T12:58:16.944Z,2.67
2023-04-17T13:00:44.559Z,2.70
2023-04-17T13:03:12.242Z,2.55
2023-04-17T13:05:39.988Z,2.90
2023-04-17T13:08:12.308Z,3.00
2023-04-17T13:10:39.572Z,2.60
2023-04-17T13:13:06.867Z,3.15
2023-04-17T13:15:34.597Z,2.42
2023-04-17T13:18:02.552Z,2.50
2023-04-17T13:20:30.120Z,2.78
2023-04-17T13:22:58.982Z,2.80
2023-04-17T13:25:26.752Z,8.65
2023-04-17T13:27:55.523Z,3.65
2023-04-17T13:30:22.908Z,3.65
2023-04-17T13:32:50.402Z,3.10
2023-04-17T13:35:18.020Z,3.15
2023-04-17T13:37:45.265Z,4.50
2023-04-17T13:40:12.724Z,3.78
2023-04-17T13:42:40.080Z,3.30
2023-04-17T13:45:07.948Z,4.90
2023-04-17T13:47:35.457Z,3.75
2023-04-17T13:50:02.869Z,3.70
2023-04-17T13:52:30.403Z,5.15
2023-04-17T13:54:57.762Z,3.50
2023-04-17T13:57:24.970Z,3.17
2023-04-17T13:59:52.467Z,4.18
2023-04-17T14:02:20.079Z,3.20
2023-04-17T14:04:47.678Z,3.15
2023-04-17T14:07:15.940Z,3.38
2023-04-17T14:09:43.174Z,3.30
2023-04-17T14:12:10.475Z,3.25
2023-04-17T14:14:37.729Z,3.30
2023-04-17T14:17:04.985Z,3.10
2023-04-17T14:19:32.209Z,3.20
2023-04-17T14:21:59.455Z,4.05
2023-04-17T14:24:27.839Z,3.22
2023-04-17T14:26:56.695Z,3.40
2023-04-17T14:29:24.021Z,3.58
2023-04-17T14:31:51.323Z,3.58
2023-04-17T14:34:18.670Z,3.30
2023-04-17T14:36:46.039Z,3.17
2023-04-17T14:39:13.530Z,3.58
2023-04-17T14:41:41.028Z,3.60
2023-04-17T14:44:08.384Z,3.50
2023-04-17T14:46:35.965Z,3.30
2023-04-17T14:49:03.423Z,3.72
2023-04-17T14:51:30.915Z,3.33
2023-04-17T14:53:58.324Z,3.22
2023-04-17T14:56:25.688Z,3.42
2023-04-17T14:58:53.025Z,3.55
2023-04-17T15:01:20.319Z,3.50
2023-04-17T15:03:48.880Z,3.60
2023-04-17T15:06:16.837Z,3.80
2023-04-17T15:08:45.933Z,3.53
2023-04-17T15:11:13.295Z,3.50
2023-04-17T15:13:40.608Z,3.70
2023-04-17T15:16:09.818Z,4.05
2023-04-17T15:18:39.399Z,4.22
2023-04-17T15:21:06.975Z,4.78
2023-04-17T15:23:34.687Z,4.00
2023-04-17T15:26:02.315Z,4.40
2023-04-17T15:28:29.700Z,4.78
2023-04-17T15:30:57.061Z,4.30
2023-04-17T15:33:24.293Z,3.90
2023-04-17T15:35:55.972Z,4.10
2023-04-17T15:38:23.313Z,3.50
2023-04-17T15:40:50.752Z,3.95
2023-04-17T15:43:18.091Z,5.22
2023-04-17T15:45:47.630Z,4.55
2023-04-17T15:48:15.787Z,4.63
2023-04-17T15:50:43.526Z,3.78
2023-04-17T15:53:10.898Z,4.15
2023-04-17T15:55:38.567Z,3.78
2023-04-17T15:58:05.900Z,4.20
2023-04-17T16:00:34.023Z,3.60
2023-04-17T16:03:01.425Z,4.32
2023-04-17T16:05:30.258Z,4.60
2023-04-17T16:07:57.824Z,3.83
2023-04-17T16:10:25.342Z,3.80
2023-04-17T16:12:52.697Z,3.85
2023-04-17T16:15:20.237Z,4.40
2023-04-17T16:17:48.852Z,4.03
2023-04-17T16:20:16.597Z,3.50
2023-04-17T16:22:44.299Z,3.47
2023-04-17T16:25:12.160Z,4.35
2023-04-17T16:27:40.361Z,3.55
2023-04-17T16:30:09.254Z,3.15
2023-04-17T16:32:36.713Z,3.08
2023-04-17T16:35:04.190Z,2.90
2023-04-17T16:37:31.454Z,3.60
2023-04-17T16:40:04.309Z,3.85
2023-04-17T16:42:32.342Z,3.10
2023-04-17T16:44:59.816Z,2.75
2023-04-17T16:47:29.800Z,2.70
2023-04-17T16:49:57.319Z,2.60
2023-04-17T16:52:24.776Z,3.20
2023-04-17T16:54:51.989Z,3.28
2023-04-17T16:57:19.287Z,2.70
2023-04-17T16:59:46.523Z,3.08
2023-04-17T17:02:14.138Z,2.58
2023-04-17T17:04:41.486Z,2.60
2023-04-17T17:07:09.143Z,2.47
2023-04-17T17:09:36.409Z,2.25
2023-04-17T17:12:03.915Z,1.90
2023-04-17T17:14:31.158Z,2.55
2023-04-17T17:16:58.578Z,2.30
2023-04-17T17:19:25.809Z,2.25
2023-04-17T17:21:55.064Z,2.90
2023-04-17T17:24:22.366Z,3.25
2023-04-17T17:26:49.588Z,2.92
2023-04-17T17:29:16.787Z,3.50
2023-04-17T17:31:44.587Z,3.80
2023-04-17T17:34:25.022Z,3.25
2023-04-17T17:36:53.828Z,2.95
2023-04-17T17:39:22.307Z,3.00
2023-04-17T17:41:50.421Z,3.00
2023-04-17T17:44:17.783Z,3.70
2023-04-17T17:46:45.316Z,3.65
2023-04-17T17:49:12.728Z,3.92
2023-04-17T17:51:40.327Z,4.07
2023-04-17T17:54:08.113Z,3.70
2023-04-17T17:56:35.736Z,4.05
2023-04-17T17:59:03.065Z,4.03
2023-04-17T18:01:30.523Z,4.07
2023-04-17T18:03:57.850Z,3.88
2023-04-17T18:06:27.722Z,3.63
2023-04-17T18:08:55.224Z,3.88
2023-04-17T18:11:22.858Z,4.53
2023-04-17T18:13:50.520Z,3.95
2023-04-17T18:16:18.078Z,4.72
2023-04-17T18:18:45.367Z,4.18
2023-04-17T18:21:13.011Z,4.85
2023-04-17T18:23:40.597Z,4.63
2023-04-17T18:26:07.823Z,4.88
2023-04-17T18:28:35.178Z,5.18
2023-04-17T18:31:02.389Z,5.00
2023-04-17T18:33:29.699Z,5.68
2023-04-17T18:35:57.134Z,5.75
2023-04-17T18:38:24.363Z,5.63
2023-04-17T18:40:56.986Z,6.10
2023-04-17T18:43:24.337Z,5.65
2023-04-17T18:45:51.661Z,5.00
2023-04-17T18:48:19.036Z,4.70
2023-04-17T18:50:46.397Z,5.47
2023-04-17T18:53:13.648Z,5.05
2023-04-17T18:55:40.944Z,4.78
2023-04-17T18:58:08.423Z,5.05
2023-04-17T19:00:37.485Z,5.35
2023-04-17T19:03:05.026Z,5.68
2023-04-17T19:05:32.474Z,5.28
2023-04-17T19:07:59.819Z,5.65
2023-04-17T19:10:27.067Z,5.53
2023-04-17T19:12:54.264Z,6.57
2023-04-17T19:15:21.917Z,5.53
2023-04-17T19:17:49.204Z,6.35
2023-04-17T19:20:16.730Z,6.47
2023-04-17T19:22:44.160Z,7.05
2023-04-17T19:25:11.530Z,6.90
2023-04-17T19:27:38.855Z,7.63
2023-04-17T19:30:08.442Z,7.60
2023-04-17T19:32:35.766Z,9.10
2023-04-17T19:35:03.135Z,9.90
2023-04-17T19:37:30.487Z,11.20
2023-04-17T19:39:57.731Z,9.40
2023-04-17T19:42:24.988Z,9.43
2023-04-17T19:44:52.266Z,9.95
2023-04-17T19:47:19.571Z,9.43
2023-04-17T19:49:47.133Z,9.57
2023-04-17T19:52:14.880Z,9.82
2023-04-17T19:54:45.268Z,10.43
2023-04-17T19:57:12.537Z,9.93
2023-04-17T19:59:39.924Z,10.23
2023-04-17T20:02:07.278Z,9.82
2023-04-17T20:04:34.540Z,10.10
2023-04-17T20:07:02.064Z,11.15
2023-04-17T20:09:29.357Z,11.00
2023-04-17T20:11:56.660Z,10.52
2023-04-17T20:14:24.864Z,10.55
2023-04-17T20:16:52.127Z,11.35
2023-04-17T20:19:20.332Z,10.45
2023-04-17T20:21:47.634Z,10.80
2023-04-17T20:24:16.056Z,10.32
2023-04-17T20:26:46.193Z,10.48
2023-04-17T20:29:13.722Z,10.10
2023-04-17T20:31:41.317Z,10.82
2023-04-17T20:34:08.559Z,10.68
2023-04-17T20:36:35.793Z,11.32
2023-04-17T20:39:03.212Z,11.40
2023-04-17T20:41:30.752Z,12.38
2023-04-17T20:44:01.837Z,11.43
2023-04-17T20:46:29.877Z,11.38
2023-04-17T20:48:57.163Z,11.43
2023-04-17T20:51:26.355Z,10.77
2023-04-17T20:53:54.445Z,10.70
2023-04-17T20:56:22.004Z,10.55
2023-04-17T20:58:49.450Z,11.57
2023-04-17T21:01:17.760Z,10.07
2023-04-17T21:03:45.486Z,10.63
2023-04-17T21:06:13.276Z,10.63
2023-04-17T21:08:41.126Z,10.25
2023-04-17T21:11:08.595Z,10.65
2023-04-17T21:13:36.605Z,10.90
2023-04-17T21:16:04.611Z,10.98
2023-04-17T21:18:32.521Z,11.32
2023-04-17T21:21:00.350Z,10.70
2023-04-17T21:23:28.424Z,10.20
2023-04-17T21:25:56.356Z,11.02
2023-04-17T21:28:24.153Z,10.60
2023-04-17T21:30:52.059Z,9.82
2023-04-17T21:33:19.888Z,10.77
2023-04-17T21:35:47.757Z,11.23
2023-04-17T21:38:15.676Z,10.40
2023-04-17T21:40:50.884Z,9.95
2023-04-17T21:43:19.690Z,9.90
2023-04-17T21:45:47.522Z,10.50
2023-04-17T21:48:15.625Z,10.05
2023-04-17T21:50:43.350Z,10.00
2023-04-17T21:53:10.752Z,10.05
2023-04-17T21:55:38.652Z,9.52
2023-04-17T21:58:06.399Z,10.25
2023-04-17T22:00:33.809Z,9.85
2023-04-17T22:03:01.331Z,9.77
2023-04-17T22:05:28.847Z,9.77
2023-04-17T22:07:56.048Z,11.23
2023-04-17T22:10:23.998Z,11.05
2023-04-17T22:12:51.504Z,10.90
2023-04-17T22:15:18.961Z,9.82
2023-04-17T22:17:46.256Z,10.40
2023-04-17T22:20:13.535Z,10.13
2023-04-17T22:22:40.840Z,9.65
2023-04-17T22:25:08.462Z,9.82
2023-04-17T22:27:35.728Z,9.32
2023-04-17T22:30:04.002Z,9.27
2023-04-17T22:32:33.037Z,10.18
2023-04-17T22:35:00.471Z,9.30
2023-04-17T22:37:27.705Z,9.88
2023-04-17T22:39:54.969Z,9.23
2023-04-17T22:42:22.211Z,9.93
2023-04-17T22:44:50.401Z,9.48
2023-04-17T22:47:17.949Z,9.50
2023-04-17T22:49:45.206Z,9.18
2023-04-17T22:52:12.447Z,9.50
2023-04-17T22:54:39.616Z,8.43
2023-04-17T22:57:06.946Z,8.60
2023-04-17T22:59:34.192Z,8.93
2023-04-17T23:02:01.851Z,9.18
2023-04-17T23:04:29.173Z,9.30
2023-04-17T23:06:57.135Z,8.77
2023-04-17T23:09:24.412Z,9.15
2023-04-17T23:11:51.660Z,9.48
2023-04-17T23:14:18.846Z,9.27
2023-04-17T23:16:46.051Z,8.80
2023-04-17T23:19:13.590Z,9.52
2023-04-17T23:21:40.987Z,9.60
2023-04-17T23:24:08.353Z,8.98
2023-04-17T23:26:35.623Z,8.88
2023-04-17T23:29:02.956Z,9.23
2023-04-17T23:31:30.169Z,8.70
2023-04-17T23:33:57.446Z,8.48
2023-04-17T23:36:24.775Z,8.23
2023-04-17T23:38:51.996Z,8.30
2023-04-17T23:41:19.255Z,8.20
2023-04-17T23:43:46.467Z,8.10
2023-04-17T23:46:13.752Z,8.25
2023-04-17T23:48:41.388Z,8.43
2023-04-17T23:51:08.966Z,8.75
2023-04-17T23:53:36.209Z,8.52
2023-04-17T23:56:04.137Z,8.40
2023-04-17T23:58:31.380Z,8.55
